Hollister, Florida
Current Conditions -  °F | °C
As of 12:35 PM on Monday 22 Dec 2014 (Local Time) from K28J Reporting Station
Broken Clouds Broken Clouds  
Wind Chill: 73°   Ceiling: 7500
Heat Index: 73°   Visibility: 10mi
Dew Point: 68°   Wind: 13mph
Humidity: 83%   Direction: 180°S
Pressure: 29.95"   Gusts: 18mph
Location:  29.62°N, 81.81°W
Report Text: K28J 221735Z AUTO 18011G16KT 10SM FEW065 BKN075 23/20 A2995 RMK AO2 LTG DSNT N AND NW
Loading
Personal Weather Stations






























Interactive Weather Map New forecast layout! Learn more

10-Day Weather Forecast

Advertisements
Track Severe Weather on mobile